Stevinson, California
Current Conditions -  °F | °C
As of 2:15 AM on Tuesday 27 Jan 2015 (Local Time) from KMER Reporting Station
Overcast Overcast  
Wind Chill: 54°   Ceiling: 100
Heat Index: 54°   Visibility: 7mi
Dew Point: 54°   Wind: 10mph
Humidity: 100%   Direction: 120°ESE
Pressure: 30.07"   Gusts: NA
Location:  37.33°N, 120.85°W
Report Text: KMER 271015Z AUTO 12009KT 7SM OVC001 12/12 A3007 RMK AO1
Loading
Personal Weather Stations






























Interactive Weather Map New forecast layout! Learn more

10-Day Weather Forecast

Advertisements
Track Severe Weather on mobile